85N weather

Hollands International Field
Newfane, New York, United States

Public forecast

Using degrees Fahrenheit for public forecast. Weather courtesy of forecast.io.

METAR (pilot weather report)

Closest report is Niagara Falls International Airport, 12.4 nm (22.9 km) SW. Retrieved 2019/06/25 14:53 UTC (13 minutes ago):

KIAG 251453Z 22013G19KT 10SM SCT028 22/18 A2979 RMK AO2 SLP084 T02220178 51011

TAF (pilot weather forecast)

Closest forecast is Niagara Falls International Airport, 12.4 nm (22.9 km) SW. Retrieved 2019/06/25 12:22 UTC (3 hours ago):

TAF KIAG 251120Z 2512/2612 23012KT P6SM FEW025 SCT080 FM251400 23016G26KT P6SM SCT100 FM251800 23016G24KT P6SM BKN060 FM252100 24014KT P6SM SCT060 FM260100 22008KT P6SM FEW100 SCT250